createdAt,value
2018-06-19T00:00:07.410Z,84.30
2018-06-19T00:02:35.805Z,84.80
2018-06-19T00:05:05.413Z,84.70
2018-06-19T00:07:33.880Z,84.20
2018-06-19T00:10:02.300Z,84.30
2018-06-19T00:12:30.757Z,83.80
2018-06-19T00:14:59.801Z,83.80
2018-06-19T00:17:28.226Z,83.60
2018-06-19T00:19:56.696Z,83.70
2018-06-19T00:24:53.288Z,84.60
2018-06-19T00:27:21.719Z,85.00
2018-06-19T00:29:50.160Z,85.00
2018-06-19T00:32:18.584Z,84.90
2018-06-19T00:34:47.662Z,85.50
2018-06-19T00:37:16.107Z,85.50
2018-06-19T00:39:44.583Z,85.50
2018-06-19T00:42:13.052Z,86.50
2018-06-19T00:44:41.477Z,86.30
2018-06-19T00:47:09.920Z,86.40
2018-06-19T00:49:38.368Z,86.80
2018-06-19T00:52:07.013Z,87.50
2018-06-19T00:54:35.477Z,86.80
2018-06-19T00:57:03.912Z,86.60
2018-06-19T01:02:01.172Z,86.80
2018-06-19T01:04:29.590Z,87.00
2018-06-19T01:06:58.035Z,87.00
2018-06-19T01:09:26.503Z,87.10
2018-06-19T01:11:54.959Z,88.30
2018-06-19T01:14:23.405Z,86.90
2018-06-19T01:16:51.852Z,88.00
2018-06-19T01:19:20.346Z,87.30
2018-06-19T01:21:48.794Z,87.20
2018-06-19T01:24:17.241Z,86.90
2018-06-19T01:26:45.640Z,87.20
2018-06-19T01:29:14.061Z,86.70
2018-06-19T01:31:42.509Z,86.30
2018-06-19T01:34:10.949Z,86.60
2018-06-19T01:36:39.389Z,86.40
2018-06-19T01:39:09.526Z,88.10
2018-06-19T01:41:37.965Z,88.10
2018-06-19T01:44:06.800Z,87.30
2018-06-19T01:46:35.234Z,87.70
2018-06-19T01:49:03.668Z,88.20
2018-06-19T01:51:32.148Z,88.30
2018-06-19T01:54:00.578Z,88.70
2018-06-19T01:56:29.049Z,88.80
2018-06-19T01:58:57.477Z,89.20
2018-06-19T02:01:25.904Z,88.30
2018-06-19T02:03:54.374Z,88.60
2018-06-19T02:06:22.902Z,87.70
2018-06-19T02:11:19.478Z,87.50
2018-06-19T02:13:47.924Z,87.20
2018-06-19T02:16:16.363Z,87.00
2018-06-19T02:18:44.782Z,87.70
2018-06-19T02:21:13.249Z,87.80
2018-06-19T02:23:41.683Z,87.90
2018-06-19T02:26:10.087Z,87.40
2018-06-19T02:28:38.529Z,87.90
2018-06-19T02:31:07.060Z,87.70
2018-06-19T02:33:35.506Z,87.90
2018-06-19T02:36:03.939Z,87.80
2018-06-19T02:38:32.373Z,88.00
2018-06-19T02:41:00.825Z,88.40
2018-06-19T02:43:29.260Z,88.60
2018-06-19T02:45:57.727Z,89.60
2018-06-19T02:48:26.182Z,88.40
2018-06-19T02:50:54.625Z,89.60
2018-06-19T02:53:23.070Z,88.30
2018-06-19T02:55:51.585Z,89.70
2018-06-19T02:58:20.043Z,88.70
2018-06-19T03:00:48.480Z,89.30
2018-06-19T03:03:16.889Z,89.90
2018-06-19T03:05:45.353Z,89.60
2018-06-19T03:08:13.827Z,90.00
2018-06-19T03:10:42.276Z,89.20
2018-06-19T03:13:10.737Z,89.10
2018-06-19T03:15:39.186Z,90.30
2018-06-19T03:18:07.670Z,90.40
2018-06-19T03:20:36.173Z,90.00
2018-06-19T03:23:04.642Z,89.90
2018-06-19T03:25:33.113Z,89.50
2018-06-19T03:28:01.570Z,89.10
2018-06-19T03:30:30.025Z,89.10
2018-06-19T03:32:58.469Z,89.60
2018-06-19T03:35:26.954Z,89.60
2018-06-19T03:37:55.377Z,89.50
2018-06-19T03:40:23.788Z,89.70
2018-06-19T03:42:52.237Z,89.20
2018-06-19T03:45:20.691Z,89.70
2018-06-19T03:47:49.171Z,89.70
2018-06-19T03:50:17.647Z,89.20
2018-06-19T03:52:46.095Z,89.20
2018-06-19T03:55:14.558Z,89.30
2018-06-19T03:57:43.050Z,89.10
2018-06-19T04:00:11.631Z,89.80
2018-06-19T04:02:40.110Z,89.60
2018-06-19T04:05:08.569Z,89.40
2018-06-19T04:07:37.089Z,89.50
2018-06-19T04:10:05.532Z,90.00
2018-06-19T04:12:34.054Z,89.00
2018-06-19T04:15:02.547Z,89.20
2018-06-19T04:17:31.017Z,89.00
2018-06-19T04:19:59.820Z,88.80
2018-06-19T04:22:29.462Z,88.50
2018-06-19T04:27:27.753Z,88.40
2018-06-19T04:29:56.344Z,87.90
2018-06-19T04:32:24.860Z,88.10
2018-06-19T04:34:53.377Z,89.10
2018-06-19T04:37:21.915Z,89.00
2018-06-19T04:39:50.467Z,88.80
2018-06-19T04:42:18.990Z,88.10
2018-06-19T04:44:47.535Z,88.20
2018-06-19T04:47:16.015Z,88.40
2018-06-19T04:49:44.543Z,88.80
2018-06-19T04:52:13.033Z,89.10
2018-06-19T04:54:41.571Z,89.00
2018-06-19T04:57:10.048Z,89.00
2018-06-19T05:02:07.187Z,87.90
2018-06-19T05:04:36.654Z,87.40
2018-06-19T05:07:05.216Z,87.60
2018-06-19T05:09:33.837Z,87.40
2018-06-19T05:12:02.477Z,87.40
2018-06-19T05:14:31.046Z,86.70
2018-06-19T05:16:59.727Z,86.10
2018-06-19T05:19:28.491Z,86.10
2018-06-19T05:21:57.127Z,86.00
2018-06-19T05:24:26.327Z,86.00
2018-06-19T05:26:54.949Z,86.20
2018-06-19T05:29:23.613Z,86.10
2018-06-19T05:31:52.312Z,85.30
2018-06-19T05:34:21.154Z,84.70
2018-06-19T05:36:50.581Z,84.30
2018-06-19T05:39:19.235Z,84.10
2018-06-19T05:41:47.978Z,83.40
2018-06-19T05:44:16.841Z,83.40
2018-06-19T05:46:45.492Z,82.80
2018-06-19T05:49:14.165Z,82.50
2018-06-19T05:51:42.881Z,82.70
2018-06-19T05:54:11.535Z,82.80
2018-06-19T05:56:40.060Z,82.60
2018-06-19T05:59:08.801Z,82.40
2018-06-19T06:01:37.310Z,81.30
2018-06-19T06:04:06.438Z,80.00
2018-06-19T06:06:35.424Z,79.80
2018-06-19T06:09:05.650Z,78.40
2018-06-19T06:11:34.222Z,78.20
2018-06-19T06:14:02.846Z,77.60
2018-06-19T06:16:31.427Z,77.20
2018-06-19T06:18:59.986Z,78.10
2018-06-19T06:21:28.527Z,76.90
2018-06-19T06:26:25.427Z,76.20
2018-06-19T06:28:53.956Z,76.50
2018-06-19T06:31:23.237Z,75.90
2018-06-19T06:33:51.991Z,74.60
2018-06-19T06:36:20.546Z,75.70
2018-06-19T06:38:49.084Z,75.60
2018-06-19T06:41:17.640Z,75.10
2018-06-19T06:43:46.321Z,75.10
2018-06-19T06:46:14.911Z,75.10
2018-06-19T06:48:43.560Z,73.70
2018-06-19T06:51:12.154Z,73.60
2018-06-19T06:53:40.687Z,71.50
2018-06-19T06:56:09.243Z,72.70
2018-06-19T06:58:37.800Z,73.60
2018-06-19T07:01:06.800Z,72.90
2018-06-19T07:03:35.273Z,72.70
2018-06-19T07:06:03.857Z,71.90
2018-06-19T07:08:33.228Z,71.90
2018-06-19T07:11:01.833Z,71.00
2018-06-19T07:13:30.376Z,69.60
2018-06-19T07:15:59.065Z,69.90
2018-06-19T07:18:27.622Z,69.60
2018-06-19T07:20:56.209Z,68.50
2018-06-19T07:23:24.800Z,67.70
2018-06-19T07:25:53.599Z,69.10
2018-06-19T07:28:22.347Z,69.10
2018-06-19T07:30:50.907Z,68.40
2018-06-19T07:33:19.415Z,66.10
2018-06-19T07:35:48.122Z,64.30
2018-06-19T07:38:16.789Z,65.30
2018-06-19T07:40:45.464Z,64.20
2018-06-19T07:43:14.042Z,64.20
2018-06-19T07:45:42.652Z,65.30
2018-06-19T07:48:11.204Z,65.80
2018-06-19T07:50:39.743Z,62.30
2018-06-19T07:53:08.269Z,63.80
2018-06-19T07:55:36.792Z,62.10
2018-06-19T07:58:05.529Z,61.40
2018-06-19T08:00:35.095Z,60.60
2018-06-19T08:03:03.630Z,59.40
2018-06-19T08:05:32.262Z,61.70
2018-06-19T08:08:00.802Z,58.20
2018-06-19T08:10:29.264Z,58.20
2018-06-19T08:12:57.779Z,58.00
2018-06-19T08:15:26.304Z,58.20
2018-06-19T08:17:54.850Z,56.10
2018-06-19T08:20:23.434Z,54.50
2018-06-19T08:22:52.087Z,54.00
2018-06-19T08:25:20.595Z,52.30
2018-06-19T08:27:49.370Z,48.80
2018-06-19T08:30:17.887Z,50.70
2018-06-19T08:32:46.458Z,47.60
2018-06-19T08:35:15.018Z,45.60
2018-06-19T08:37:43.566Z,44.20
2018-06-19T08:40:12.273Z,47.10
2018-06-19T08:42:40.825Z,45.50
2018-06-19T08:45:09.333Z,45.90
2018-06-19T08:47:37.822Z,47.00
2018-06-19T08:50:06.525Z,50.20
2018-06-19T08:52:34.975Z,49.80
2018-06-19T08:55:03.673Z,47.10
2018-06-19T08:57:32.138Z,47.00
2018-06-19T09:00:00.580Z,46.30
2018-06-19T09:02:29.100Z,45.30
2018-06-19T09:04:57.597Z,44.90
2018-06-19T09:07:26.111Z,43.90
2018-06-19T09:09:54.657Z,44.40
2018-06-19T09:12:23.144Z,45.20
2018-06-19T09:14:51.693Z,45.70
2018-06-19T09:17:20.200Z,45.20
2018-06-19T09:19:48.650Z,45.30
2018-06-19T09:22:17.243Z,47.50
2018-06-19T09:24:45.736Z,46.40
2018-06-19T09:27:14.249Z,48.50
2018-06-19T09:29:42.728Z,44.00
2018-06-19T09:32:11.213Z,43.00
2018-06-19T09:34:39.689Z,45.30
2018-06-19T09:37:08.214Z,42.00
2018-06-19T09:39:36.801Z,44.40
2018-06-19T09:42:05.295Z,41.20
2018-06-19T09:44:33.788Z,37.50
2018-06-19T09:47:02.264Z,38.00
2018-06-19T09:49:30.787Z,38.50
2018-06-19T09:51:59.296Z,39.70
2018-06-19T09:54:27.781Z,42.30
2018-06-19T09:56:56.264Z,41.40
2018-06-19T09:59:24.925Z,42.00
2018-06-19T10:01:53.426Z,38.20
2018-06-19T10:04:21.943Z,39.10
2018-06-19T10:06:50.512Z,38.90
2018-06-19T10:09:19.003Z,37.80
2018-06-19T10:11:47.573Z,40.20
2018-06-19T10:14:16.124Z,37.50
2018-06-19T10:16:44.758Z,37.40
2018-06-19T10:19:13.273Z,38.30
2018-06-19T10:21:41.963Z,37.40
2018-06-19T10:24:10.453Z,37.50
2018-06-19T10:26:38.990Z,34.10
2018-06-19T10:29:07.599Z,34.10
2018-06-19T10:31:36.140Z,35.40
2018-06-19T10:34:04.648Z,39.70
2018-06-19T10:36:33.259Z,35.10
2018-06-19T10:39:01.717Z,38.10
2018-06-19T10:41:30.225Z,36.80
2018-06-19T10:43:59.281Z,39.90
2018-06-19T10:46:27.766Z,38.80
2018-06-19T10:48:56.280Z,39.00
2018-06-19T10:51:24.824Z,38.60
2018-06-19T10:53:53.321Z,39.10
2018-06-19T10:56:21.842Z,36.90
2018-06-19T10:58:50.294Z,40.80
2018-06-19T11:03:46.931Z,41.40
2018-06-19T11:06:15.452Z,42.00
2018-06-19T11:08:43.914Z,42.10
2018-06-19T11:11:12.420Z,41.00
2018-06-19T11:13:40.973Z,40.30
2018-06-19T11:16:09.434Z,42.80
2018-06-19T11:18:37.918Z,43.30
2018-06-19T11:21:07.463Z,42.80
2018-06-19T11:23:36.402Z,39.60
2018-06-19T11:26:04.859Z,41.40
2018-06-19T11:28:33.330Z,42.10
2018-06-19T11:31:01.752Z,38.40
2018-06-19T11:33:30.218Z,41.00
2018-06-19T11:35:58.728Z,41.10
2018-06-19T11:38:27.292Z,43.00
2018-06-19T11:40:55.777Z,42.90
2018-06-19T11:43:24.314Z,41.90
2018-06-19T11:45:52.816Z,41.40
2018-06-19T11:48:21.315Z,40.00
2018-06-19T11:50:49.892Z,39.90
2018-06-19T11:53:18.375Z,38.90
2018-06-19T11:55:46.990Z,40.50
2018-06-19T11:58:15.519Z,40.00
2018-06-19T12:00:44.220Z,40.40
2018-06-19T12:03:12.722Z,40.00
2018-06-19T12:05:44.070Z,39.40
2018-06-19T12:08:12.543Z,38.30
2018-06-19T12:10:40.984Z,41.30
2018-06-19T12:13:09.469Z,41.40
2018-06-19T12:15:37.947Z,41.40
2018-06-19T12:18:06.677Z,40.90
2018-06-19T12:20:35.224Z,41.30
2018-06-19T12:23:03.658Z,39.30
2018-06-19T12:25:32.164Z,36.60
2018-06-19T12:28:00.640Z,35.30
2018-06-19T12:30:29.064Z,33.80
2018-06-19T12:32:57.549Z,36.20
2018-06-19T12:35:26.043Z,35.20
2018-06-19T12:37:54.530Z,34.40
2018-06-19T12:40:22.982Z,37.00
2018-06-19T12:42:51.464Z,35.70
2018-06-19T12:45:19.902Z,36.40
2018-06-19T12:47:48.370Z,34.90
2018-06-19T12:51:39.825Z,35.10
2018-06-19T12:55:18.856Z,37.30
2018-06-19T12:57:48.664Z,37.60
2018-06-19T13:00:17.147Z,36.70
2018-06-19T13:02:56.876Z,36.80
2018-06-19T13:05:36.608Z,36.80
2018-06-19T13:08:05.105Z,37.20
2018-06-19T13:10:33.561Z,36.30
2018-06-19T13:13:23.482Z,36.60
2018-06-19T13:15:52.960Z,37.20
2018-06-19T13:20:55.620Z,37.60
2018-06-19T13:23:24.049Z,39.00
2018-06-19T13:25:52.614Z,40.80
2018-06-19T13:31:01.397Z,41.30
2018-06-19T13:33:29.847Z,41.90
2018-06-19T13:35:58.332Z,41.30
2018-06-19T13:38:26.770Z,41.60
2018-06-19T13:41:11.174Z,42.60
2018-06-19T13:43:50.898Z,44.20
2018-06-19T13:46:19.413Z,45.40
2018-06-19T13:48:47.875Z,45.30
2018-06-19T13:51:16.338Z,43.10
2018-06-19T13:53:45.255Z,41.40
2018-06-19T13:57:32.089Z,41.80
2018-06-19T14:00:01.822Z,38.90
2018-06-19T14:02:30.317Z,36.00
2018-06-19T14:04:59.232Z,37.20
2018-06-19T14:07:28.582Z,34.50
2018-06-19T14:10:06.441Z,32.10
2018-06-19T14:12:58.216Z,31.30
2018-06-19T14:15:28.141Z,32.30
2018-06-19T14:17:57.081Z,32.00
2018-06-19T14:20:25.561Z,30.30
2018-06-19T14:22:54.067Z,29.90
2018-06-19T14:25:22.835Z,29.80
2018-06-19T14:27:51.893Z,29.60
2018-06-19T14:30:20.432Z,29.10
2018-06-19T14:32:49.387Z,29.10
2018-06-19T14:35:18.402Z,27.90
2018-06-19T14:37:46.905Z,27.40
2018-06-19T14:40:15.771Z,29.60
2018-06-19T14:42:44.280Z,30.00
2018-06-19T14:45:13.030Z,32.40
2018-06-19T14:47:42.161Z,31.80
2018-06-19T14:50:10.927Z,32.00
2018-06-19T14:52:39.480Z,31.50
2018-06-19T14:55:09.000Z,32.20
2018-06-19T14:57:37.600Z,33.60
2018-06-19T15:00:07.317Z,34.00
2018-06-19T15:02:35.810Z,35.50
2018-06-19T15:05:04.706Z,35.60
2018-06-19T15:07:42.272Z,36.40
2018-06-19T15:10:13.357Z,38.30
2018-06-19T15:12:43.432Z,38.20
2018-06-19T15:15:11.956Z,38.60
2018-06-19T15:17:40.441Z,39.00
2018-06-19T15:20:09.444Z,39.40
2018-06-19T15:22:37.947Z,38.60
2018-06-19T15:25:06.365Z,40.00
2018-06-19T15:27:34.804Z,40.70
2018-06-19T15:30:03.311Z,39.90
2018-06-19T15:32:31.819Z,41.00
2018-06-19T15:35:00.310Z,41.90
2018-06-19T15:37:28.758Z,43.50
2018-06-19T15:39:57.204Z,42.60
2018-06-19T15:42:25.732Z,42.80
2018-06-19T15:44:54.678Z,41.10
2018-06-19T15:47:23.150Z,42.20
2018-06-19T15:49:51.621Z,42.60
2018-06-19T15:52:20.042Z,42.40
2018-06-19T15:54:48.485Z,42.70
2018-06-19T15:57:16.933Z,42.50
2018-06-19T15:59:45.412Z,42.30
2018-06-19T16:02:13.888Z,42.60
2018-06-19T16:04:42.696Z,42.50
2018-06-19T16:07:11.189Z,43.70
2018-06-19T16:09:39.656Z,43.10
2018-06-19T16:12:08.131Z,43.60
2018-06-19T16:14:36.556Z,43.60
2018-06-19T16:17:05.044Z,43.10
2018-06-19T16:19:33.547Z,41.90
2018-06-19T16:22:01.958Z,42.80
2018-06-19T16:24:30.429Z,43.30
2018-06-19T16:26:58.862Z,44.20
2018-06-19T16:29:27.350Z,43.60
2018-06-19T16:31:55.992Z,43.70
2018-06-19T16:34:24.434Z,43.00
2018-06-19T16:36:52.887Z,43.90
2018-06-19T16:39:21.363Z,43.90
2018-06-19T16:41:50.096Z,44.60
2018-06-19T16:44:18.558Z,44.50
2018-06-19T16:46:47.044Z,44.50
2018-06-19T16:49:15.526Z,44.40
2018-06-19T16:51:43.958Z,44.90
2018-06-19T16:54:12.417Z,45.30
2018-06-19T16:56:40.858Z,45.80
2018-06-19T16:59:09.353Z,44.60
2018-06-19T17:01:37.845Z,45.10
2018-06-19T17:04:06.297Z,46.20
2018-06-19T17:06:35.279Z,46.30
2018-06-19T17:09:04.884Z,46.40
2018-06-19T17:11:33.393Z,45.80
2018-06-19T17:14:01.851Z,46.40
2018-06-19T17:16:30.324Z,47.10
2018-06-19T17:18:58.870Z,47.20
2018-06-19T17:21:27.459Z,47.30
2018-06-19T17:23:55.912Z,47.70
2018-06-19T17:26:24.444Z,47.40
2018-06-19T17:28:52.997Z,47.60
2018-06-19T17:31:21.515Z,48.30
2018-06-19T17:33:50.153Z,49.00
2018-06-19T17:36:18.760Z,48.20
2018-06-19T17:38:47.254Z,48.70
2018-06-19T17:41:15.854Z,49.00
2018-06-19T17:43:44.447Z,48.90
2018-06-19T17:46:13.034Z,48.50
2018-06-19T17:51:10.206Z,49.10
2018-06-19T17:53:38.749Z,49.50
2018-06-19T17:56:07.570Z,49.20
2018-06-19T17:58:36.173Z,50.10
2018-06-19T18:01:06.638Z,50.80
2018-06-19T18:03:35.266Z,50.30
2018-06-19T18:06:04.521Z,50.50
2018-06-19T18:08:33.692Z,52.10
2018-06-19T18:11:03.711Z,51.80
2018-06-19T18:13:32.304Z,51.70
2018-06-19T18:16:02.448Z,52.30
2018-06-19T18:18:31.283Z,52.70
2018-06-19T18:21:00.016Z,52.20
2018-06-19T18:23:28.817Z,53.00
2018-06-19T18:25:57.522Z,52.70
2018-06-19T18:28:26.234Z,53.40
2018-06-19T18:30:55.131Z,53.30
2018-06-19T18:33:24.069Z,53.90
2018-06-19T18:35:53.070Z,53.50
2018-06-19T18:38:23.893Z,54.00
2018-06-19T18:40:52.547Z,54.40
2018-06-19T18:43:21.159Z,55.30
2018-06-19T18:45:49.936Z,55.80
2018-06-19T18:48:18.637Z,56.90
2018-06-19T18:50:47.220Z,57.30
2018-06-19T18:53:15.819Z,55.70
2018-06-19T18:55:44.412Z,58.10
2018-06-19T18:58:13.168Z,56.70
2018-06-19T19:00:41.790Z,56.90
2018-06-19T19:03:10.590Z,57.80
2018-06-19T19:05:40.323Z,58.40
2018-06-19T19:08:13.098Z,57.90
2018-06-19T19:10:46.944Z,58.20
2018-06-19T19:13:15.489Z,59.30
2018-06-19T19:15:49.424Z,58.80
2018-06-19T19:18:23.420Z,58.90
2018-06-19T19:20:52.119Z,57.60
2018-06-19T19:23:20.950Z,58.50
2018-06-19T19:28:22.947Z,57.30
2018-06-19T19:30:51.502Z,57.30
2018-06-19T19:33:20.077Z,59.20
2018-06-19T19:35:48.792Z,60.40
2018-06-19T19:38:22.675Z,59.70
2018-06-19T19:40:51.128Z,60.00
2018-06-19T19:43:19.745Z,59.60
2018-06-19T19:45:48.195Z,59.20
2018-06-19T19:48:21.916Z,59.90
2018-06-19T19:50:50.345Z,61.10
2018-06-19T19:53:18.834Z,62.40
2018-06-19T19:55:52.687Z,61.20
2018-06-19T19:58:26.341Z,63.70
2018-06-19T20:00:54.784Z,61.90
2018-06-19T20:03:23.239Z,62.00
2018-06-19T20:05:52.259Z,63.20
2018-06-19T20:08:22.508Z,62.30
2018-06-19T20:10:51.706Z,64.50
2018-06-19T20:13:20.579Z,64.80
2018-06-19T20:15:49.481Z,64.70
2018-06-19T20:18:18.130Z,63.80
2018-06-19T20:20:46.586Z,65.10
2018-06-19T20:23:15.063Z,65.00
2018-06-19T20:25:43.568Z,66.90
2018-06-19T20:28:12.055Z,67.00
2018-06-19T20:30:40.538Z,67.70
2018-06-19T20:33:09.048Z,65.90
2018-06-19T20:35:37.599Z,66.40
2018-06-19T20:38:06.082Z,65.80
2018-06-19T20:40:34.716Z,66.30
2018-06-19T20:43:03.154Z,67.00
2018-06-19T20:45:31.611Z,67.50
2018-06-19T20:48:00.126Z,67.30
2018-06-19T20:50:28.567Z,67.20
2018-06-19T20:52:57.026Z,67.30
2018-06-19T20:55:25.652Z,67.90
2018-06-19T20:57:54.166Z,68.20
2018-06-19T21:00:22.648Z,68.40
2018-06-19T21:02:51.139Z,68.30
2018-06-19T21:05:19.612Z,68.70
2018-06-19T21:07:48.029Z,69.00
2018-06-19T21:10:16.553Z,69.10
2018-06-19T21:12:45.002Z,69.80
2018-06-19T21:15:13.432Z,70.00
2018-06-19T21:20:10.092Z,70.20
2018-06-19T21:22:38.589Z,70.50
2018-06-19T21:25:07.071Z,71.00
2018-06-19T21:27:36.234Z,71.30
2018-06-19T21:30:05.835Z,73.60
2018-06-19T21:32:34.331Z,72.90
2018-06-19T21:37:31.307Z,72.30
2018-06-19T21:39:59.745Z,73.80
2018-06-19T21:42:28.233Z,72.60
2018-06-19T21:44:56.858Z,73.30
2018-06-19T21:47:25.316Z,73.70
2018-06-19T21:49:53.793Z,73.20
2018-06-19T21:52:22.366Z,73.80
2018-06-19T21:54:52.136Z,73.60
2018-06-19T21:57:20.877Z,74.20
2018-06-19T21:59:49.422Z,74.60
2018-06-19T22:02:34.542Z,75.30
2018-06-19T22:05:04.454Z,75.30
2018-06-19T22:07:33.644Z,75.50
2018-06-19T22:10:02.103Z,75.40
2018-06-19T22:12:30.550Z,75.40
2018-06-19T22:14:59.018Z,75.40
2018-06-19T22:17:28.206Z,75.60
2018-06-19T22:19:56.670Z,76.80
2018-06-19T22:22:25.098Z,76.00
2018-06-19T22:24:53.612Z,76.00
2018-06-19T22:27:22.079Z,76.80
2018-06-19T22:29:50.558Z,77.30
2018-06-19T22:32:19.010Z,77.30
2018-06-19T22:34:47.447Z,76.80
2018-06-19T22:37:16.009Z,76.90
2018-06-19T22:39:44.462Z,77.30
2018-06-19T22:42:12.934Z,77.40
2018-06-19T22:44:41.385Z,77.80
2018-06-19T22:47:09.884Z,78.30
2018-06-19T22:49:38.388Z,78.20
2018-06-19T22:52:06.820Z,78.20
2018-06-19T22:54:35.216Z,77.90
2018-06-19T22:57:03.675Z,78.30
2018-06-19T22:59:32.144Z,78.80
2018-06-19T23:02:00.559Z,79.00
2018-06-19T23:04:29.009Z,79.60
2018-06-19T23:06:57.480Z,78.90
2018-06-19T23:09:26.316Z,79.10
2018-06-19T23:11:54.736Z,79.30
2018-06-19T23:14:23.183Z,79.60
2018-06-19T23:16:51.650Z,79.80
2018-06-19T23:19:20.070Z,79.90
2018-06-19T23:21:48.514Z,79.90
2018-06-19T23:24:17.027Z,81.10
2018-06-19T23:26:45.490Z,81.20
2018-06-19T23:29:14.587Z,80.30
2018-06-19T23:31:43.049Z,80.80
2018-06-19T23:34:11.511Z,80.20
2018-06-19T23:36:40.074Z,80.10
2018-06-19T23:39:10.018Z,80.20
2018-06-19T23:41:38.521Z,80.50
2018-06-19T23:44:07.011Z,80.50
2018-06-19T23:46:35.463Z,80.90
2018-06-19T23:49:03.919Z,80.60
2018-06-19T23:51:32.558Z,80.60
2018-06-19T23:54:04.141Z,80.90
2018-06-19T23:56:32.691Z,80.90
2018-06-19T23:59:01.171Z,81.20
